sensor_id;sensor_type;location;lat;lon;timestamp;pressure;altitude;pressure_sealevel;temperature;humidity
72794;BME280;63436;26.334;50.194;2023-05-16T00:00:04;100588.25;;;29.92;15.35
72794;BME280;63436;26.334;50.194;2023-05-16T00:02:29;100581.28;;;30.02;15.20
72794;BME280;63436;26.334;50.194;2023-05-16T00:04:55;100587.57;;;30.10;14.74
72794;BME280;63436;26.334;50.194;2023-05-16T00:07:21;100590.84;;;30.06;14.96
72794;BME280;63436;26.334;50.194;2023-05-16T00:09:47;100599.06;;;31.11;14.45
72794;BME280;63436;26.334;50.194;2023-05-16T00:12:12;100624.62;;;30.78;14.47
72794;BME280;63436;26.334;50.194;2023-05-16T00:14:37;100624.91;;;31.26;13.74
72794;BME280;63436;26.334;50.194;2023-05-16T00:17:02;100611.07;;;31.17;14.04
72794;BME280;63436;26.334;50.194;2023-05-16T00:19:27;100615.15;;;31.49;13.83
72794;BME280;63436;26.334;50.194;2023-05-16T00:21:53;100613.01;;;31.21;13.60
72794;BME280;63436;26.334;50.194;2023-05-16T00:24:18;100606.78;;;30.33;14.51
72794;BME280;63436;26.334;50.194;2023-05-16T00:26:45;100609.90;;;29.96;15.69
72794;BME280;63436;26.334;50.194;2023-05-16T00:29:09;100605.54;;;30.43;15.19
72794;BME280;63436;26.334;50.194;2023-05-16T00:31:34;100598.35;;;30.22;15.16
72794;BME280;63436;26.334;50.194;2023-05-16T00:34:00;100614.17;;;30.09;14.94
72794;BME280;63436;26.334;50.194;2023-05-16T00:36:26;100619.08;;;30.59;14.46
72794;BME280;63436;26.334;50.194;2023-05-16T00:38:56;100638.70;;;31.19;13.94
72794;BME280;63436;26.334;50.194;2023-05-16T00:41:18;100633.30;;;30.93;13.62
72794;BME280;63436;26.334;50.194;2023-05-16T00:43:43;100617.64;;;31.01;14.38
72794;BME280;63436;26.334;50.194;2023-05-16T00:46:10;100605.33;;;30.37;14.82
72794;BME280;63436;26.334;50.194;2023-05-16T00:48:36;100613.61;;;30.31;14.96
72794;BME280;63436;26.334;50.194;2023-05-16T00:51:01;100607.20;;;30.15;14.78
72794;BME280;63436;26.334;50.194;2023-05-16T00:53:28;100609.39;;;30.22;14.72
72794;BME280;63436;26.334;50.194;2023-05-16T00:55:55;100592.60;;;30.06;14.86
72794;BME280;63436;26.334;50.194;2023-05-16T00:58:21;100586.05;;;30.07;15.16
72794;BME280;63436;26.334;50.194;2023-05-16T01:00:46;100596.15;;;30.05;15.37
72794;BME280;63436;26.334;50.194;2023-05-16T01:03:12;100609.31;;;30.70;14.45
72794;BME280;63436;26.334;50.194;2023-05-16T01:05:38;100602.77;;;30.70;14.65
72794;BME280;63436;26.334;50.194;2023-05-16T01:08:05;100609.19;;;30.23;14.78
72794;BME280;63436;26.334;50.194;2023-05-16T01:10:35;100629.29;;;30.76;14.83
72794;BME280;63436;26.334;50.194;2023-05-16T01:13:05;100609.08;;;30.49;14.68
72794;BME280;63436;26.334;50.194;2023-05-16T01:15:23;100591.16;;;30.36;14.92
72794;BME280;63436;26.334;50.194;2023-05-16T01:17:54;100600.19;;;30.63;15.00
72794;BME280;63436;26.334;50.194;2023-05-16T01:20:19;100618.41;;;29.42;15.52
72794;BME280;63436;26.334;50.194;2023-05-16T01:22:46;100621.68;;;30.08;14.92
72794;BME280;63436;26.334;50.194;2023-05-16T01:25:09;100643.57;;;31.14;14.15
72794;BME280;63436;26.334;50.194;2023-05-16T01:27:29;100629.16;;;30.74;14.36
72794;BME280;63436;26.334;50.194;2023-05-16T01:29:55;100597.30;;;30.45;14.91
72794;BME280;63436;26.334;50.194;2023-05-16T01:32:21;100620.56;;;30.30;15.74
72794;BME280;63436;26.334;50.194;2023-05-16T01:34:47;100619.68;;;30.52;14.98
72794;BME280;63436;26.334;50.194;2023-05-16T01:37:18;100611.65;;;30.37;14.99
72794;BME280;63436;26.334;50.194;2023-05-16T01:39:43;100630.54;;;30.04;15.02
72794;BME280;63436;26.334;50.194;2023-05-16T01:42:06;100686.18;;;30.51;14.31
72794;BME280;63436;26.334;50.194;2023-05-16T01:44:32;100661.28;;;31.07;14.04
72794;BME280;63436;26.334;50.194;2023-05-16T01:46:57;100640.40;;;30.75;14.91
72794;BME280;63436;26.334;50.194;2023-05-16T01:49:25;100648.29;;;30.39;15.53
72794;BME280;63436;26.334;50.194;2023-05-16T01:51:51;100680.95;;;30.82;14.06
72794;BME280;63436;26.334;50.194;2023-05-16T01:54:11;100652.58;;;30.42;13.93
72794;BME280;63436;26.334;50.194;2023-05-16T01:56:36;100673.12;;;30.72;13.75
72794;BME280;63436;26.334;50.194;2023-05-16T01:59:01;100601.81;;;30.04;14.34
72794;BME280;63436;26.334;50.194;2023-05-16T02:01:26;100619.32;;;30.15;14.73
72794;BME280;63436;26.334;50.194;2023-05-16T02:03:51;100575.77;;;29.91;14.78
72794;BME280;63436;26.334;50.194;2023-05-16T02:06:17;100520.35;;;30.06;14.58
72794;BME280;63436;26.334;50.194;2023-05-16T02:08:42;100530.43;;;29.97;14.27
72794;BME280;63436;26.334;50.194;2023-05-16T02:11:08;100554.21;;;30.83;14.14
72794;BME280;63436;26.334;50.194;2023-05-16T02:13:33;100558.86;;;30.17;14.48
72794;BME280;63436;26.334;50.194;2023-05-16T02:15:58;100567.01;;;30.84;14.19
72794;BME280;63436;26.334;50.194;2023-05-16T02:18:24;100580.24;;;30.98;14.20
72794;BME280;63436;26.334;50.194;2023-05-16T02:20:49;100592.92;;;30.47;14.74
72794;BME280;63436;26.334;50.194;2023-05-16T02:23:14;100630.39;;;30.88;14.33
72794;BME280;63436;26.334;50.194;2023-05-16T02:25:39;100638.29;;;31.12;14.11
72794;BME280;63436;26.334;50.194;2023-05-16T02:28:04;100635.44;;;30.52;14.12
72794;BME280;63436;26.334;50.194;2023-05-16T02:30:35;100641.81;;;30.57;14.90
72794;BME280;63436;26.334;50.194;2023-05-16T02:32:57;100646.43;;;30.74;14.65
72794;BME280;63436;26.334;50.194;2023-05-16T02:35:22;100653.96;;;31.05;14.91
72794;BME280;63436;26.334;50.194;2023-05-16T02:37:47;100677.25;;;31.22;14.24
72794;BME280;63436;26.334;50.194;2023-05-16T02:40:14;100681.44;;;31.58;14.05
72794;BME280;63436;26.334;50.194;2023-05-16T02:42:38;100690.42;;;31.33;14.64
72794;BME280;63436;26.334;50.194;2023-05-16T02:45:04;100714.06;;;31.69;13.92
72794;BME280;63436;26.334;50.194;2023-05-16T02:47:30;100716.30;;;31.03;14.62
72794;BME280;63436;26.334;50.194;2023-05-16T02:49:54;100721.51;;;30.80;14.84
72794;BME280;63436;26.334;50.194;2023-05-16T02:52:20;100722.60;;;31.09;14.50
72794;BME280;63436;26.334;50.194;2023-05-16T02:54:46;100691.74;;;30.28;15.91
72794;BME280;63436;26.334;50.194;2023-05-16T02:57:12;100727.08;;;30.58;17.33
72794;BME280;63436;26.334;50.194;2023-05-16T02:59:38;100730.66;;;30.85;16.32
72794;BME280;63436;26.334;50.194;2023-05-16T03:02:04;100744.92;;;31.37;15.75
72794;BME280;63436;26.334;50.194;2023-05-16T03:04:30;100779.81;;;31.49;15.15
72794;BME280;63436;26.334;50.194;2023-05-16T03:06:56;100764.47;;;31.55;14.45
72794;BME280;63436;26.334;50.194;2023-05-16T03:09:22;100775.14;;;30.73;14.88
72794;BME280;63436;26.334;50.194;2023-05-16T03:11:48;100750.01;;;30.41;15.90
72794;BME280;63436;26.334;50.194;2023-05-16T03:14:14;100754.53;;;30.48;17.04
72794;BME280;63436;26.334;50.194;2023-05-16T03:16:41;100722.23;;;30.15;17.54
72794;BME280;63436;26.334;50.194;2023-05-16T03:19:07;100720.00;;;30.31;17.02
72794;BME280;63436;26.334;50.194;2023-05-16T03:21:33;100711.22;;;30.21;17.56
72794;BME280;63436;26.334;50.194;2023-05-16T03:24:00;100726.30;;;30.42;16.66
72794;BME280;63436;26.334;50.194;2023-05-16T03:26:26;100728.51;;;30.32;16.66
72794;BME280;63436;26.334;50.194;2023-05-16T03:28:51;100737.57;;;29.98;16.43
72794;BME280;63436;26.334;50.194;2023-05-16T03:31:18;100743.97;;;30.23;16.11
72794;BME280;63436;26.334;50.194;2023-05-16T03:33:42;100736.98;;;30.43;16.29
72794;BME280;63436;26.334;50.194;2023-05-16T03:36:09;100742.97;;;30.37;16.23
72794;BME280;63436;26.334;50.194;2023-05-16T03:38:37;100773.47;;;30.48;15.86
72794;BME280;63436;26.334;50.194;2023-05-16T03:41:01;100778.36;;;31.12;15.24
72794;BME280;63436;26.334;50.194;2023-05-16T03:43:26;100808.19;;;31.03;14.64
72794;BME280;63436;26.334;50.194;2023-05-16T03:45:53;100795.20;;;31.37;14.10
72794;BME280;63436;26.334;50.194;2023-05-16T03:48:19;100797.86;;;31.45;14.38
72794;BME280;63436;26.334;50.194;2023-05-16T03:50:45;100794.93;;;31.04;15.58
72794;BME280;63436;26.334;50.194;2023-05-16T03:53:12;100780.15;;;30.47;16.43
72794;BME280;63436;26.334;50.194;2023-05-16T03:55:38;100800.08;;;30.83;16.31
72794;BME280;63436;26.334;50.194;2023-05-16T03:58:04;100787.41;;;31.24;15.73
72794;BME280;63436;26.334;50.194;2023-05-16T04:00:31;100805.76;;;31.38;15.55
72794;BME280;63436;26.334;50.194;2023-05-16T04:02:57;100801.07;;;31.81;15.72
72794;BME280;63436;26.334;50.194;2023-05-16T04:05:23;100796.57;;;32.14;15.31
72794;BME280;63436;26.334;50.194;2023-05-16T04:07:50;100786.88;;;32.17;15.44
72794;BME280;63436;26.334;50.194;2023-05-16T04:10:16;100809.51;;;31.94;15.02
72794;BME280;63436;26.334;50.194;2023-05-16T04:12:42;100807.47;;;32.08;15.05
72794;BME280;63436;26.334;50.194;2023-05-16T04:15:09;100825.06;;;32.94;14.32
72794;BME280;63436;26.334;50.194;2023-05-16T04:17:35;100823.24;;;32.90;14.27
72794;BME280;63436;26.334;50.194;2023-05-16T04:20:01;100833.26;;;33.37;13.60
72794;BME280;63436;26.334;50.194;2023-05-16T04:22:27;100843.21;;;32.98;13.36
72794;BME280;63436;26.334;50.194;2023-05-16T04:24:53;100852.24;;;32.89;13.25
72794;BME280;63436;26.334;50.194;2023-05-16T04:27:19;100870.94;;;33.35;12.98
72794;BME280;63436;26.334;50.194;2023-05-16T04:29:46;100862.77;;;31.94;13.60
72794;BME280;63436;26.334;50.194;2023-05-16T04:32:12;100875.89;;;32.25;14.73
72794;BME280;63436;26.334;50.194;2023-05-16T04:34:38;100870.65;;;32.29;14.55
72794;BME280;63436;26.334;50.194;2023-05-16T04:37:05;100884.06;;;32.90;14.29
72794;BME280;63436;26.334;50.194;2023-05-16T04:39:31;100884.54;;;32.15;14.33
72794;BME280;63436;26.334;50.194;2023-05-16T04:41:57;100905.40;;;32.97;14.12
72794;BME280;63436;26.334;50.194;2023-05-16T04:44:24;100892.91;;;32.59;13.49
72794;BME280;63436;26.334;50.194;2023-05-16T04:46:49;100883.29;;;32.38;14.62
72794;BME280;63436;26.334;50.194;2023-05-16T04:49:15;100875.76;;;32.04;15.13
72794;BME280;63436;26.334;50.194;2023-05-16T04:51:42;100873.87;;;31.97;15.12
72794;BME280;63436;26.334;50.194;2023-05-16T04:54:08;100887.78;;;32.40;14.93
72794;BME280;63436;26.334;50.194;2023-05-16T04:56:34;100873.89;;;32.67;14.50
72794;BME280;63436;26.334;50.194;2023-05-16T04:59:00;100870.99;;;32.40;13.96
72794;BME280;63436;26.334;50.194;2023-05-16T05:01:27;100880.47;;;30.14;14.93
72794;BME280;63436;26.334;50.194;2023-05-16T05:03:53;100861.01;;;32.35;14.00
72794;BME280;63436;26.334;50.194;2023-05-16T05:06:19;100868.56;;;31.85;14.79
72794;BME280;63436;26.334;50.194;2023-05-16T05:08:46;100848.23;;;31.87;14.69
72794;BME280;63436;26.334;50.194;2023-05-16T05:11:12;100842.97;;;31.91;14.50
72794;BME280;63436;26.334;50.194;2023-05-16T05:13:39;100842.70;;;30.00;15.28
72794;BME280;63436;26.334;50.194;2023-05-16T05:16:04;100859.55;;;31.04;15.15
72794;BME280;63436;26.334;50.194;2023-05-16T05:18:30;100872.45;;;32.16;14.02
72794;BME280;63436;26.334;50.194;2023-05-16T05:20:57;100870.11;;;32.07;14.42
72794;BME280;63436;26.334;50.194;2023-05-16T05:23:23;100901.22;;;32.26;14.95
72794;BME280;63436;26.334;50.194;2023-05-16T05:25:49;100901.37;;;32.40;15.17
72794;BME280;63436;26.334;50.194;2023-05-16T05:28:16;100907.87;;;32.79;15.31
72794;BME280;63436;26.334;50.194;2023-05-16T05:30:41;100891.40;;;32.37;15.42
72794;BME280;63436;26.334;50.194;2023-05-16T05:33:13;100897.06;;;31.84;15.88
72794;BME280;63436;26.334;50.194;2023-05-16T05:35:34;100888.98;;;31.98;15.21
72794;BME280;63436;26.334;50.194;2023-05-16T05:38:00;100885.00;;;32.26;15.07
72794;BME280;63436;26.334;50.194;2023-05-16T05:40:27;100892.14;;;32.33;15.22
72794;BME280;63436;26.334;50.194;2023-05-16T05:42:54;100895.91;;;32.65;14.21
72794;BME280;63436;26.334;50.194;2023-05-16T05:45:19;100914.04;;;32.86;14.86
72794;BME280;63436;26.334;50.194;2023-05-16T05:47:46;100913.85;;;33.11;14.62
72794;BME280;63436;26.334;50.194;2023-05-16T05:50:13;100907.74;;;33.42;15.48
72794;BME280;63436;26.334;50.194;2023-05-16T05:52:39;100903.91;;;32.39;15.45
72794;BME280;63436;26.334;50.194;2023-05-16T05:55:05;100912.97;;;32.47;14.57
72794;BME280;63436;26.334;50.194;2023-05-16T05:57:30;100905.04;;;32.20;14.53
72794;BME280;63436;26.334;50.194;2023-05-16T05:59:56;100896.85;;;32.47;16.28
72794;BME280;63436;26.334;50.194;2023-05-16T06:02:22;100888.98;;;33.25;15.67
72794;BME280;63436;26.334;50.194;2023-05-16T06:04:48;100890.57;;;32.86;17.37
72794;BME280;63436;26.334;50.194;2023-05-16T06:07:14;100886.26;;;32.76;18.26
72794;BME280;63436;26.334;50.194;2023-05-16T06:09:40;100886.20;;;32.00;17.40
72794;BME280;63436;26.334;50.194;2023-05-16T06:12:08;100892.42;;;32.14;16.96
72794;BME280;63436;26.334;50.194;2023-05-16T06:14:33;100889.51;;;31.52;15.21
72794;BME280;63436;26.334;50.194;2023-05-16T06:16:59;100904.50;;;31.46;15.15
72794;BME280;63436;26.334;50.194;2023-05-16T06:19:26;100899.71;;;32.29;15.42
72794;BME280;63436;26.334;50.194;2023-05-16T06:21:52;100886.99;;;31.50;15.55
72794;BME280;63436;26.334;50.194;2023-05-16T06:24:18;100873.97;;;31.84;15.74
72794;BME280;63436;26.334;50.194;2023-05-16T06:26:44;100863.28;;;31.92;14.25
72794;BME280;63436;26.334;50.194;2023-05-16T06:29:11;100870.55;;;32.24;14.53
72794;BME280;63436;26.334;50.194;2023-05-16T06:31:36;100865.47;;;31.50;14.57
72794;BME280;63436;26.334;50.194;2023-05-16T06:34:03;100876.93;;;31.11;14.93
72794;BME280;63436;26.334;50.194;2023-05-16T06:36:29;100854.10;;;31.90;14.79
72794;BME280;63436;26.334;50.194;2023-05-16T06:38:55;100852.08;;;31.68;14.96
72794;BME280;63436;26.334;50.194;2023-05-16T06:41:22;100839.87;;;32.35;14.64
72794;BME280;63436;26.334;50.194;2023-05-16T06:43:48;100839.76;;;32.41;14.81
72794;BME280;63436;26.334;50.194;2023-05-16T06:46:14;100842.70;;;30.98;15.13
72794;BME280;63436;26.334;50.194;2023-05-16T06:48:40;100855.52;;;30.83;15.18
72794;BME280;63436;26.334;50.194;2023-05-16T06:51:06;100850.61;;;31.03;14.37
72794;BME280;63436;26.334;50.194;2023-05-16T06:53:32;100851.20;;;31.67;15.31
72794;BME280;63436;26.334;50.194;2023-05-16T06:55:59;100835.20;;;31.44;15.61
72794;BME280;63436;26.334;50.194;2023-05-16T06:58:25;100837.67;;;31.92;15.00
72794;BME280;63436;26.334;50.194;2023-05-16T07:00:51;100829.51;;;31.27;14.71
72794;BME280;63436;26.334;50.194;2023-05-16T07:03:17;100809.73;;;30.96;15.80
72794;BME280;63436;26.334;50.194;2023-05-16T07:05:43;100797.59;;;30.74;15.46
72794;BME280;63436;26.334;50.194;2023-05-16T07:08:09;100797.14;;;30.95;16.11
72794;BME280;63436;26.334;50.194;2023-05-16T07:10:36;100811.95;;;30.95;15.24
72794;BME280;63436;26.334;50.194;2023-05-16T07:13:01;100826.24;;;31.26;15.21
72794;BME280;63436;26.334;50.194;2023-05-16T07:15:28;100828.56;;;29.94;15.89
72794;BME280;63436;26.334;50.194;2023-05-16T07:17:54;100827.87;;;30.69;15.76
72794;BME280;63436;26.334;50.194;2023-05-16T07:20:21;100820.39;;;30.86;15.42
72794;BME280;63436;26.334;50.194;2023-05-16T07:22:46;100805.69;;;31.77;16.09
72794;BME280;63436;26.334;50.194;2023-05-16T07:25:13;100784.04;;;30.60;16.06
72794;BME280;63436;26.334;50.194;2023-05-16T07:27:39;100794.95;;;31.65;16.01
72794;BME280;63436;26.334;50.194;2023-05-16T07:30:07;100794.50;;;30.75;16.30
72794;BME280;63436;26.334;50.194;2023-05-16T07:32:32;100785.59;;;30.44;15.69
72794;BME280;63436;26.334;50.194;2023-05-16T07:34:58;100797.11;;;30.16;16.30
72794;BME280;63436;26.334;50.194;2023-05-16T07:37:24;100795.56;;;30.40;16.08
72794;BME280;63436;26.334;50.194;2023-05-16T07:39:50;100803.43;;;31.82;15.69
72794;BME280;63436;26.334;50.194;2023-05-16T07:42:16;100782.53;;;29.88;15.68
72794;BME280;63436;26.334;50.194;2023-05-16T07:44:42;100778.72;;;32.03;15.76
72794;BME280;63436;26.334;50.194;2023-05-16T07:47:09;100777.14;;;31.00;15.41
72794;BME280;63436;26.334;50.194;2023-05-16T07:49:34;100779.91;;;31.76;16.28
72794;BME280;63436;26.334;50.194;2023-05-16T07:52:00;100781.11;;;31.14;16.84
72794;BME280;63436;26.334;50.194;2023-05-16T07:54:27;100780.19;;;33.28;15.19
72794;BME280;63436;26.334;50.194;2023-05-16T07:56:53;100781.05;;;32.99;15.83
72794;BME280;63436;26.334;50.194;2023-05-16T07:59:18;100794.58;;;31.76;15.63
72794;BME280;63436;26.334;50.194;2023-05-16T08:01:43;100787.70;;;32.58;16.28
72794;BME280;63436;26.334;50.194;2023-05-16T08:04:10;100784.03;;;32.86;16.49
72794;BME280;63436;26.334;50.194;2023-05-16T08:06:36;100784.03;;;33.65;16.62
72794;BME280;63436;26.334;50.194;2023-05-16T08:09:03;100781.76;;;33.17;17.90
72794;BME280;63436;26.334;50.194;2023-05-16T08:11:28;100768.64;;;33.63;17.16
72794;BME280;63436;26.334;50.194;2023-05-16T08:13:54;100772.04;;;32.96;16.45
72794;BME280;63436;26.334;50.194;2023-05-16T08:16:20;100776.30;;;33.18;16.57
72794;BME280;63436;26.334;50.194;2023-05-16T08:18:46;100783.43;;;32.48;16.99
72794;BME280;63436;26.334;50.194;2023-05-16T08:21:12;100781.85;;;33.39;16.82
72794;BME280;63436;26.334;50.194;2023-05-16T08:23:37;100782.98;;;32.54;17.22
72794;BME280;63436;26.334;50.194;2023-05-16T08:26:04;100793.30;;;31.83;16.96
72794;BME280;63436;26.334;50.194;2023-05-16T08:28:30;100799.82;;;32.05;17.38
72794;BME280;63436;26.334;50.194;2023-05-16T08:30:56;100794.19;;;31.90;16.93
72794;BME280;63436;26.334;50.194;2023-05-16T08:33:22;100788.97;;;32.55;16.78
72794;BME280;63436;26.334;50.194;2023-05-16T08:35:50;100791.42;;;32.64;17.17
72794;BME280;63436;26.334;50.194;2023-05-16T08:38:14;100793.06;;;33.50;16.49
72794;BME280;63436;26.334;50.194;2023-05-16T08:40:39;100788.34;;;32.90;17.36
72794;BME280;63436;26.334;50.194;2023-05-16T08:43:06;100786.60;;;32.10;18.25
72794;BME280;63436;26.334;50.194;2023-05-16T08:45:31;100781.40;;;31.92;18.11
72794;BME280;63436;26.334;50.194;2023-05-16T08:48:00;100782.48;;;31.34;18.30
72794;BME280;63436;26.334;50.194;2023-05-16T08:50:24;100778.57;;;32.27;16.86
72794;BME280;63436;26.334;50.194;2023-05-16T08:52:52;100780.58;;;30.90;17.23
72794;BME280;63436;26.334;50.194;2023-05-16T08:55:19;100776.41;;;30.83;16.82
72794;BME280;63436;26.334;50.194;2023-05-16T08:57:42;100774.85;;;30.54;17.65
72794;BME280;63436;26.334;50.194;2023-05-16T09:00:10;100771.35;;;32.11;16.88
72794;BME280;63436;26.334;50.194;2023-05-16T09:02:35;100776.49;;;31.51;17.78
72794;BME280;63436;26.334;50.194;2023-05-16T09:05:01;100768.53;;;32.23;17.00
72794;BME280;63436;26.334;50.194;2023-05-16T09:07:28;100768.68;;;31.36;17.57
72794;BME280;63436;26.334;50.194;2023-05-16T09:09:52;100772.62;;;31.78;17.24
72794;BME280;63436;26.334;50.194;2023-05-16T09:12:19;100759.94;;;32.64;17.00
72794;BME280;63436;26.334;50.194;2023-05-16T09:14:44;100755.01;;;32.26;17.06
72794;BME280;63436;26.334;50.194;2023-05-16T09:17:10;100751.37;;;32.49;17.36
72794;BME280;63436;26.334;50.194;2023-05-16T09:19:37;100744.58;;;31.34;17.77
72794;BME280;63436;26.334;50.194;2023-05-16T09:22:03;100744.07;;;31.57;16.98
72794;BME280;63436;26.334;50.194;2023-05-16T09:24:29;100751.32;;;32.10;16.22
72794;BME280;63436;26.334;50.194;2023-05-16T09:26:55;100745.31;;;31.16;16.49
72794;BME280;63436;26.334;50.194;2023-05-16T09:29:21;100736.02;;;32.74;16.09
72794;BME280;63436;26.334;50.194;2023-05-16T09:31:48;100730.58;;;32.18;16.45
72794;BME280;63436;26.334;50.194;2023-05-16T09:34:12;100728.58;;;32.93;15.83
72794;BME280;63436;26.334;50.194;2023-05-16T09:36:39;100729.92;;;31.81;16.27
72794;BME280;63436;26.334;50.194;2023-05-16T09:39:04;100735.44;;;32.02;16.14
72794;BME280;63436;26.334;50.194;2023-05-16T09:41:32;100726.72;;;32.14;15.66
72794;BME280;63436;26.334;50.194;2023-05-16T09:43:55;100727.31;;;31.94;15.72
72794;BME280;63436;26.334;50.194;2023-05-16T09:46:25;100731.68;;;32.37;15.44
72794;BME280;63436;26.334;50.194;2023-05-16T09:48:47;100730.80;;;32.11;16.21
72794;BME280;63436;26.334;50.194;2023-05-16T09:51:14;100727.31;;;32.50;16.57
72794;BME280;63436;26.334;50.194;2023-05-16T09:53:40;100730.55;;;32.18;16.24
72794;BME280;63436;26.334;50.194;2023-05-16T09:56:10;100721.49;;;32.50;16.93
72794;BME280;63436;26.334;50.194;2023-05-16T09:58:33;100725.81;;;32.47;16.21
72794;BME280;63436;26.334;50.194;2023-05-16T10:00:57;100725.22;;;32.62;16.23
72794;BME280;63436;26.334;50.194;2023-05-16T10:03:24;100730.18;;;32.43;15.43
72794;BME280;63436;26.334;50.194;2023-05-16T10:05:48;100735.66;;;32.77;15.11
72794;BME280;63436;26.334;50.194;2023-05-16T10:08:15;100732.35;;;31.33;15.51
72794;BME280;63436;26.334;50.194;2023-05-16T10:10:40;100732.85;;;33.59;15.73
72794;BME280;63436;26.334;50.194;2023-05-16T10:13:07;100732.15;;;32.11;14.95
72794;BME280;63436;26.334;50.194;2023-05-16T10:15:31;100740.61;;;31.24;16.92
72794;BME280;63436;26.334;50.194;2023-05-16T10:17:57;100724.33;;;32.18;15.00
72794;BME280;63436;26.334;50.194;2023-05-16T10:20:23;100714.79;;;32.39;15.77
72794;BME280;63436;26.334;50.194;2023-05-16T10:22:50;100712.88;;;31.62;14.60
72794;BME280;63436;26.334;50.194;2023-05-16T10:25:19;100707.58;;;32.45;14.95
72794;BME280;63436;26.334;50.194;2023-05-16T10:27:41;100704.62;;;31.57;14.93
72794;BME280;63436;26.334;50.194;2023-05-16T10:30:06;100702.91;;;32.09;15.64
72794;BME280;63436;26.334;50.194;2023-05-16T10:32:31;100697.58;;;32.86;14.94
72794;BME280;63436;26.334;50.194;2023-05-16T10:34:57;100695.71;;;32.38;14.50
72794;BME280;63436;26.334;50.194;2023-05-16T10:37:24;100683.43;;;31.94;14.88
72794;BME280;63436;26.334;50.194;2023-05-16T10:39:50;100676.52;;;32.96;14.50
72794;BME280;63436;26.334;50.194;2023-05-16T10:42:16;100671.22;;;32.40;13.82
72794;BME280;63436;26.334;50.194;2023-05-16T10:44:40;100669.55;;;30.50;15.31
72794;BME280;63436;26.334;50.194;2023-05-16T10:47:06;100661.30;;;32.62;14.50
72794;BME280;63436;26.334;50.194;2023-05-16T10:49:32;100660.71;;;31.79;14.68
72794;BME280;63436;26.334;50.194;2023-05-16T10:52:04;100663.18;;;31.57;14.71
72794;BME280;63436;26.334;50.194;2023-05-16T10:56:54;100658.69;;;31.01;16.01
72794;BME280;63436;26.334;50.194;2023-05-16T10:59:21;100659.89;;;31.26;16.20
72794;BME280;63436;26.334;50.194;2023-05-16T11:01:39;100661.42;;;32.59;15.11
72794;BME280;63436;26.334;50.194;2023-05-16T11:04:06;100656.17;;;32.50;14.83
72794;BME280;63436;26.334;50.194;2023-05-16T11:06:31;100644.70;;;32.08;15.06
72794;BME280;63436;26.334;50.194;2023-05-16T11:09:04;100652.26;;;32.36;15.39
72794;BME280;63436;26.334;50.194;2023-05-16T11:11:38;100650.63;;;31.38;15.42
72794;BME280;63436;26.334;50.194;2023-05-16T11:13:53;100650.40;;;32.26;15.54
72794;BME280;63436;26.334;50.194;2023-05-16T11:16:26;100645.58;;;31.04;16.01
72794;BME280;63436;26.334;50.194;2023-05-16T11:21:05;100639.74;;;32.52;15.85
72794;BME280;63436;26.334;50.194;2023-05-16T11:23:30;100641.36;;;32.13;16.16
72794;BME280;63436;26.334;50.194;2023-05-16T11:25:57;100638.61;;;32.28;15.99
72794;BME280;63436;26.334;50.194;2023-05-16T11:28:24;100630.89;;;31.52;16.32
72794;BME280;63436;26.334;50.194;2023-05-16T11:30:49;100632.92;;;32.45;16.36
72794;BME280;63436;26.334;50.194;2023-05-16T11:33:12;100625.43;;;32.00;15.93
72794;BME280;63436;26.334;50.194;2023-05-16T11:35:37;100621.21;;;31.64;16.29
72794;BME280;63436;26.334;50.194;2023-05-16T11:38:02;100621.27;;;33.00;15.35
72794;BME280;63436;26.334;50.194;2023-05-16T11:40:29;100622.59;;;31.46;16.14
72794;BME280;63436;26.334;50.194;2023-05-16T11:42:54;100624.41;;;31.38;16.03
72794;BME280;63436;26.334;50.194;2023-05-16T11:45:21;100623.52;;;31.72;16.16
72794;BME280;63436;26.334;50.194;2023-05-16T11:47:46;100626.28;;;32.42;16.00
72794;BME280;63436;26.334;50.194;2023-05-16T11:50:12;100618.41;;;32.42;16.56
72794;BME280;63436;26.334;50.194;2023-05-16T11:52:37;100618.22;;;31.97;15.94
72794;BME280;63436;26.334;50.194;2023-05-16T11:55:03;100620.50;;;31.57;16.26
72794;BME280;63436;26.334;50.194;2023-05-16T11:57:27;100621.95;;;31.44;16.61
72794;BME280;63436;26.334;50.194;2023-05-16T11:59:54;100622.89;;;31.53;16.58
72794;BME280;63436;26.334;50.194;2023-05-16T12:02:21;100625.33;;;33.12;15.52
72794;BME280;63436;26.334;50.194;2023-05-16T12:04:46;100632.05;;;32.09;16.58
72794;BME280;63436;26.334;50.194;2023-05-16T12:07:11;100627.51;;;31.22;17.79
72794;BME280;63436;26.334;50.194;2023-05-16T12:09:38;100631.52;;;31.51;16.89
72794;BME280;63436;26.334;50.194;2023-05-16T12:12:04;100642.31;;;33.22;16.39
72794;BME280;63436;26.334;50.194;2023-05-16T12:14:29;100645.85;;;32.00;16.34
72794;BME280;63436;26.334;50.194;2023-05-16T12:16:56;100642.75;;;32.24;16.51
72794;BME280;63436;26.334;50.194;2023-05-16T12:19:21;100650.08;;;32.60;16.50
72794;BME280;63436;26.334;50.194;2023-05-16T12:21:46;100652.11;;;32.38;16.56
72794;BME280;63436;26.334;50.194;2023-05-16T12:24:12;100655.95;;;32.45;15.89
72794;BME280;63436;26.334;50.194;2023-05-16T12:26:39;100656.38;;;33.76;15.53
72794;BME280;63436;26.334;50.194;2023-05-16T12:29:04;100663.31;;;32.97;16.17
72794;BME280;63436;26.334;50.194;2023-05-16T12:31:30;100664.23;;;33.09;15.76
72794;BME280;63436;26.334;50.194;2023-05-16T12:33:55;100676.24;;;33.13;15.79
72794;BME280;63436;26.334;50.194;2023-05-16T12:36:21;100682.91;;;33.15;15.70